createdAt,value
2018-05-09T00:00:02.562Z,6.60
2018-05-09T00:01:02.543Z,9.00
2018-05-09T00:02:02.534Z,9.00
2018-05-09T00:03:02.515Z,6.70
2018-05-09T00:04:02.502Z,10.40
2018-05-09T00:05:02.491Z,8.70
2018-05-09T00:06:02.477Z,11.20
2018-05-09T00:07:02.465Z,8.50
2018-05-09T00:08:02.458Z,8.80
2018-05-09T00:09:02.487Z,9.20
2018-05-09T00:10:02.424Z,6.50
2018-05-09T00:11:02.411Z,10.50
2018-05-09T00:12:02.440Z,9.80
2018-05-09T00:13:02.387Z,7.50
2018-05-09T00:14:02.370Z,6.60
2018-05-09T00:15:02.366Z,11.00
2018-05-09T00:16:02.345Z,7.10
2018-05-09T00:17:02.332Z,7.90
2018-05-09T00:18:02.320Z,7.30
2018-05-09T00:19:02.306Z,9.20
2018-05-09T00:20:02.293Z,5.40
2018-05-09T00:21:02.279Z,8.50
2018-05-09T00:22:02.266Z,8.60
2018-05-09T00:23:02.253Z,8.80
2018-05-09T00:24:02.239Z,8.10
2018-05-09T00:25:02.226Z,6.60
2018-05-09T00:26:02.213Z,4.70
2018-05-09T00:27:02.202Z,7.10
2018-05-09T00:28:02.186Z,6.70
2018-05-09T00:29:02.172Z,7.50
2018-05-09T00:30:02.161Z,9.20
2018-05-09T00:31:02.153Z,10.40
2018-05-09T00:32:02.137Z,8.50
2018-05-09T00:33:02.123Z,9.80
2018-05-09T00:34:02.110Z,7.40
2018-05-09T00:35:02.097Z,6.30
2018-05-09T00:36:02.086Z,8.10
2018-05-09T00:37:02.068Z,6.60
2018-05-09T00:38:02.068Z,7.90
2018-05-09T00:39:02.045Z,5.90
2018-05-09T00:40:02.031Z,6.90
2018-05-09T00:41:02.015Z,8.90
2018-05-09T00:42:02.001Z,11.30
2018-05-09T00:43:02.004Z,11.20
2018-05-09T00:44:01.978Z,7.00
2018-05-09T00:45:01.963Z,9.00
2018-05-09T00:46:01.950Z,7.40
2018-05-09T00:47:01.935Z,11.10
2018-05-09T00:48:01.921Z,8.10
2018-05-09T00:49:01.912Z,6.20
2018-05-09T00:50:02.002Z,9.60
2018-05-09T00:51:01.884Z,6.70
2018-05-09T00:52:01.944Z,9.10
2018-05-09T00:53:01.857Z,8.80
2018-05-09T00:54:01.842Z,5.70
2018-05-09T00:55:01.830Z,10.00
2018-05-09T00:56:01.818Z,5.70
2018-05-09T00:57:01.814Z,10.90
2018-05-09T00:58:01.797Z,11.60
2018-05-09T00:59:01.778Z,7.50
2018-05-09T01:00:01.781Z,8.10
2018-05-09T01:01:01.757Z,8.10
2018-05-09T01:02:01.736Z,10.40
2018-05-09T01:03:01.721Z,7.60
2018-05-09T01:04:01.707Z,8.20
2018-05-09T01:05:01.701Z,6.70
2018-05-09T01:06:01.682Z,5.90
2018-05-09T01:07:01.678Z,9.60
2018-05-09T01:08:01.652Z,6.80
2018-05-09T01:09:01.644Z,6.30
2018-05-09T01:10:01.629Z,9.80
2018-05-09T01:11:01.624Z,6.40
2018-05-09T01:12:01.599Z,7.20
2018-05-09T01:13:01.588Z,9.60
2018-05-09T01:14:01.586Z,7.20
2018-05-09T01:15:01.565Z,8.50
2018-05-09T01:16:01.547Z,8.50
2018-05-09T01:17:01.532Z,6.70
2018-05-09T01:18:01.520Z,9.40
2018-05-09T01:19:01.506Z,10.40
2018-05-09T01:20:01.492Z,10.60
2018-05-09T01:21:01.496Z,9.70
2018-05-09T01:22:01.466Z,8.40
2018-05-09T01:23:01.451Z,7.20
2018-05-09T01:24:01.438Z,9.90
2018-05-09T01:25:01.423Z,9.30
2018-05-09T01:26:01.412Z,8.90
2018-05-09T01:27:01.396Z,8.00
2018-05-09T01:28:01.380Z,13.50
2018-05-09T01:29:01.369Z,9.50
2018-05-09T01:30:01.356Z,12.90
2018-05-09T01:31:01.340Z,9.70
2018-05-09T01:32:01.326Z,9.60
2018-05-09T01:33:01.314Z,10.90
2018-05-09T01:34:01.300Z,7.80
2018-05-09T01:35:01.295Z,8.70
2018-05-09T01:36:01.279Z,7.80
2018-05-09T01:37:01.257Z,8.90
2018-05-09T01:38:01.244Z,9.00
2018-05-09T01:39:01.231Z,7.90
2018-05-09T01:40:01.216Z,11.50
2018-05-09T01:41:01.203Z,9.40
2018-05-09T01:42:01.190Z,7.90
2018-05-09T01:43:01.180Z,9.30
2018-05-09T01:44:01.161Z,10.40
2018-05-09T01:45:01.148Z,6.30
2018-05-09T01:46:01.135Z,8.00
2018-05-09T01:47:01.126Z,9.00
2018-05-09T01:48:01.106Z,7.90
2018-05-09T01:49:01.092Z,8.40
2018-05-09T01:50:01.079Z,8.70
2018-05-09T01:51:01.070Z,9.10
2018-05-09T01:52:01.051Z,10.90
2018-05-09T01:53:01.036Z,9.00
2018-05-09T01:54:01.026Z,8.50
2018-05-09T01:55:01.107Z,8.20
2018-05-09T01:56:00.996Z,10.30
2018-05-09T01:57:00.983Z,9.40
2018-05-09T01:58:00.967Z,9.80
2018-05-09T01:59:00.954Z,7.20
2018-05-09T02:00:00.947Z,14.10
2018-05-09T02:01:00.929Z,9.60
2018-05-09T02:02:00.914Z,10.30
2018-05-09T02:03:00.900Z,9.50
2018-05-09T02:04:00.888Z,7.50
2018-05-09T02:05:00.874Z,10.50
2018-05-09T02:06:00.941Z,6.60
2018-05-09T02:07:00.843Z,12.80
2018-05-09T02:08:00.826Z,12.50
2018-05-09T02:09:00.814Z,13.10
2018-05-09T02:10:00.802Z,9.60
2018-05-09T02:11:00.788Z,8.80
2018-05-09T02:12:00.772Z,10.20
2018-05-09T02:13:00.758Z,11.50
2018-05-09T02:14:00.743Z,8.40
2018-05-09T02:15:00.732Z,10.20
2018-05-09T02:16:00.714Z,11.20
2018-05-09T02:17:00.704Z,11.60
2018-05-09T02:18:00.695Z,11.70
2018-05-09T02:19:00.673Z,10.10
2018-05-09T02:20:00.660Z,10.50
2018-05-09T02:21:00.647Z,8.10
2018-05-09T02:22:00.632Z,11.50
2018-05-09T02:23:00.627Z,11.00
2018-05-09T02:24:00.679Z,11.50
2018-05-09T02:25:00.598Z,11.90
2018-05-09T02:26:00.578Z,12.30
2018-05-09T02:27:00.570Z,11.50
2018-05-09T02:28:00.547Z,12.20
2018-05-09T02:29:00.535Z,9.80
2018-05-09T02:30:00.525Z,9.10
2018-05-09T02:31:00.604Z,8.10
2018-05-09T02:32:00.491Z,12.10
2018-05-09T02:33:00.476Z,13.10
2018-05-09T02:34:00.466Z,9.00
2018-05-09T02:35:00.447Z,9.60
2018-05-09T02:36:00.435Z,11.80
2018-05-09T02:37:00.433Z,9.50
2018-05-09T02:38:00.410Z,11.60
2018-05-09T02:39:00.392Z,9.20
2018-05-09T02:40:00.378Z,13.50
2018-05-09T02:41:00.362Z,14.30
2018-05-09T02:42:00.350Z,10.30
2018-05-09T02:43:00.339Z,11.50
2018-05-09T02:44:00.324Z,11.10
2018-05-09T02:45:00.307Z,10.90
2018-05-09T02:46:00.295Z,7.60
2018-05-09T02:47:00.282Z,9.00
2018-05-09T02:48:00.272Z,11.10
2018-05-09T02:49:00.259Z,9.20
2018-05-09T02:50:00.370Z,8.40
2018-05-09T02:51:00.221Z,11.10
2018-05-09T02:52:00.206Z,12.60
2018-05-09T02:53:01.409Z,9.20
2018-05-09T02:54:00.182Z,13.60
2018-05-09T02:55:00.164Z,12.00
2018-05-09T02:56:00.150Z,10.60
2018-05-09T02:57:00.135Z,7.90
2018-05-09T02:58:00.121Z,10.30
2018-05-09T02:59:00.106Z,8.30
2018-05-09T03:00:00.094Z,9.00
2018-05-09T03:01:00.077Z,8.50
2018-05-09T03:02:00.063Z,11.40
2018-05-09T03:03:00.048Z,10.90
2018-05-09T03:04:00.035Z,15.90
2018-05-09T03:05:00.028Z,10.40
2018-05-09T03:06:00.005Z,10.30
2018-05-09T03:06:59.992Z,12.50
2018-05-09T03:07:59.983Z,9.50
2018-05-09T03:08:59.969Z,8.60
2018-05-09T03:09:59.946Z,13.20
2018-05-09T03:10:59.931Z,10.30
2018-05-09T03:11:59.917Z,11.40
2018-05-09T03:12:59.904Z,11.40
2018-05-09T03:13:59.888Z,13.20
2018-05-09T03:14:59.875Z,15.30
2018-05-09T03:15:59.861Z,12.10
2018-05-09T03:16:59.843Z,10.60
2018-05-09T03:17:59.830Z,13.70
2018-05-09T03:18:59.898Z,10.40
2018-05-09T03:19:59.800Z,10.70
2018-05-09T03:20:59.788Z,13.80
2018-05-09T03:21:59.774Z,15.70
2018-05-09T03:22:59.760Z,14.30
2018-05-09T03:23:59.742Z,13.40
2018-05-09T03:24:59.742Z,12.40
2018-05-09T03:25:59.730Z,9.30
2018-05-09T03:26:59.700Z,13.70
2018-05-09T03:27:59.685Z,10.70
2018-05-09T03:28:59.674Z,11.50
2018-05-09T03:29:59.656Z,12.50
2018-05-09T03:30:59.649Z,11.20
2018-05-09T03:31:59.629Z,11.30
2018-05-09T03:32:59.612Z,9.60
2018-05-09T03:33:59.603Z,10.50
2018-05-09T03:34:59.583Z,13.80
2018-05-09T03:35:59.568Z,13.50
2018-05-09T03:36:59.554Z,15.00
2018-05-09T03:37:59.541Z,11.60
2018-05-09T03:38:59.530Z,11.20
2018-05-09T03:39:59.511Z,10.50
2018-05-09T03:40:59.499Z,14.60
2018-05-09T03:41:59.478Z,11.50
2018-05-09T03:42:59.466Z,11.40
2018-05-09T03:43:59.450Z,15.80
2018-05-09T03:44:59.437Z,12.40
2018-05-09T03:46:02.655Z,13.40
2018-05-09T03:46:59.407Z,13.20
2018-05-09T03:47:59.391Z,14.00
2018-05-09T03:48:59.379Z,12.70
2018-05-09T03:49:59.363Z,13.50
2018-05-09T03:50:59.367Z,14.70
2018-05-09T03:51:59.333Z,13.70
2018-05-09T03:52:59.322Z,13.90
2018-05-09T03:53:59.305Z,20.50
2018-05-09T03:54:59.292Z,16.10
2018-05-09T03:55:59.276Z,14.70
2018-05-09T03:56:59.261Z,16.00
2018-05-09T03:57:59.254Z,14.40
2018-05-09T03:58:59.233Z,13.00
2018-05-09T03:59:59.219Z,12.70
2018-05-09T04:00:59.203Z,12.10
2018-05-09T04:01:59.192Z,14.10
2018-05-09T04:02:59.174Z,15.20
2018-05-09T04:03:59.157Z,13.20
2018-05-09T04:04:59.159Z,13.30
2018-05-09T04:05:59.135Z,14.00
2018-05-09T04:06:59.122Z,11.10
2018-05-09T04:07:59.107Z,13.60
2018-05-09T04:08:59.084Z,13.60
2018-05-09T04:09:59.080Z,19.80
2018-05-09T04:10:59.056Z,15.00
2018-05-09T04:11:59.047Z,16.30
2018-05-09T04:12:59.027Z,15.50
2018-05-09T04:13:59.014Z,13.40
2018-05-09T04:14:58.997Z,15.20
2018-05-09T04:15:58.981Z,19.00
2018-05-09T04:16:58.968Z,16.80
2018-05-09T04:17:58.952Z,13.60
2018-05-09T04:18:58.937Z,13.60
2018-05-09T04:19:58.924Z,15.10
2018-05-09T04:20:58.911Z,16.10
2018-05-09T04:21:58.894Z,14.30
2018-05-09T04:22:58.878Z,18.20
2018-05-09T04:23:58.864Z,13.40
2018-05-09T04:24:58.848Z,13.60
2018-05-09T04:25:58.833Z,17.70
2018-05-09T04:26:58.820Z,16.60
2018-05-09T04:27:58.812Z,12.00
2018-05-09T04:28:58.796Z,12.80
2018-05-09T04:29:58.775Z,15.20
2018-05-09T04:30:58.766Z,15.20
2018-05-09T04:31:58.745Z,15.20
2018-05-09T04:32:58.729Z,18.10
2018-05-09T04:33:58.715Z,21.20
2018-05-09T04:34:58.707Z,22.60
2018-05-09T04:35:58.686Z,15.20
2018-05-09T04:36:58.672Z,17.40
2018-05-09T04:37:58.658Z,17.10
2018-05-09T04:38:58.655Z,15.00
2018-05-09T04:39:58.628Z,16.10
2018-05-09T04:40:58.615Z,17.40
2018-05-09T04:41:58.678Z,17.70
2018-05-09T04:42:58.584Z,17.40
2018-05-09T04:43:58.569Z,16.10
2018-05-09T04:44:58.556Z,16.70
2018-05-09T04:45:58.550Z,19.50
2018-05-09T04:46:58.530Z,19.30
2018-05-09T04:47:58.511Z,16.40
2018-05-09T04:48:58.498Z,18.30
2018-05-09T04:49:58.500Z,15.00
2018-05-09T04:50:58.468Z,15.30
2018-05-09T04:51:58.452Z,20.00
2018-05-09T04:52:58.437Z,16.90
2018-05-09T04:53:58.427Z,14.00
2018-05-09T04:54:58.425Z,16.90
2018-05-09T04:55:58.399Z,15.40
2018-05-09T04:56:58.383Z,16.40
2018-05-09T04:57:58.379Z,14.30
2018-05-09T04:58:58.352Z,14.30
2018-05-09T04:59:58.337Z,13.00
2018-05-09T05:00:58.321Z,15.90
2018-05-09T05:01:58.313Z,16.90
2018-05-09T05:02:58.292Z,16.70
2018-05-09T05:03:58.279Z,18.60
2018-05-09T05:04:58.313Z,14.20
2018-05-09T05:05:58.247Z,15.90
2018-05-09T05:06:58.273Z,14.70
2018-05-09T05:07:58.232Z,14.10
2018-05-09T05:08:58.206Z,17.80
2018-05-09T05:09:58.192Z,21.90
2018-05-09T05:10:58.188Z,17.10
2018-05-09T05:11:58.158Z,12.70
2018-05-09T05:12:58.169Z,17.90
2018-05-09T05:13:58.130Z,15.70
2018-05-09T05:14:58.131Z,20.80
2018-05-09T05:15:58.101Z,15.80
2018-05-09T05:16:58.087Z,12.40
2018-05-09T05:17:58.072Z,14.70
2018-05-09T05:18:58.058Z,17.40
2018-05-09T05:19:58.044Z,13.60
2018-05-09T05:20:58.028Z,16.30
2018-05-09T05:21:58.013Z,17.50
2018-05-09T05:22:58.007Z,16.90
2018-05-09T05:23:57.984Z,14.80
2018-05-09T05:24:57.977Z,15.40
2018-05-09T05:25:57.958Z,16.90
2018-05-09T05:26:57.952Z,11.30
2018-05-09T05:27:57.927Z,19.20
2018-05-09T05:28:57.914Z,15.80
2018-05-09T05:29:57.910Z,14.50
2018-05-09T05:30:57.886Z,16.00
2018-05-09T05:31:57.871Z,15.30
2018-05-09T05:32:57.860Z,13.50
2018-05-09T05:33:57.845Z,19.40
2018-05-09T05:34:57.833Z,14.60
2018-05-09T05:35:57.817Z,17.20
2018-05-09T05:36:57.812Z,14.60
2018-05-09T05:37:57.793Z,16.00
2018-05-09T05:38:57.782Z,17.30
2018-05-09T05:39:57.777Z,13.30
2018-05-09T05:40:57.756Z,17.00
2018-05-09T05:41:57.746Z,15.30
2018-05-09T05:42:57.734Z,13.00
2018-05-09T05:43:57.724Z,21.50
2018-05-09T05:44:57.945Z,14.50
2018-05-09T05:45:57.704Z,20.60
2018-05-09T05:46:57.691Z,17.40
2018-05-09T05:47:57.692Z,13.10
2018-05-09T05:48:57.674Z,13.90
2018-05-09T05:49:57.663Z,14.30
2018-05-09T05:50:57.657Z,15.70
2018-05-09T05:51:57.680Z,13.10
2018-05-09T05:52:57.638Z,13.90
2018-05-09T05:53:57.639Z,11.60
2018-05-09T05:54:57.621Z,15.40
2018-05-09T05:55:57.699Z,13.80
2018-05-09T05:56:57.614Z,21.10
2018-05-09T05:57:57.600Z,13.90
2018-05-09T05:58:57.591Z,15.70
2018-05-09T05:59:57.583Z,15.70
2018-05-09T06:00:57.732Z,17.50
2018-05-09T06:01:57.571Z,14.50
2018-05-09T06:02:57.775Z,13.20
2018-05-09T06:03:57.558Z,17.70
2018-05-09T06:04:57.553Z,11.80
2018-05-09T06:05:57.548Z,10.20
2018-05-09T06:06:57.542Z,16.80
2018-05-09T06:07:57.573Z,10.20
2018-05-09T06:08:57.535Z,11.90
2018-05-09T06:09:57.528Z,11.70
2018-05-09T06:10:57.532Z,11.80
2018-05-09T06:11:57.517Z,13.50
2018-05-09T06:12:57.514Z,13.40
2018-05-09T06:13:57.509Z,10.40
2018-05-09T06:14:57.513Z,13.50
2018-05-09T06:15:57.500Z,14.50
2018-05-09T06:16:57.508Z,15.00
2018-05-09T06:17:57.492Z,14.60
2018-05-09T06:18:57.494Z,11.70
2018-05-09T06:19:57.487Z,12.80
2018-05-09T06:20:57.483Z,19.50
2018-05-09T06:21:57.485Z,12.00
2018-05-09T06:22:57.478Z,11.30
2018-05-09T06:23:57.500Z,16.50
2018-05-09T06:24:57.500Z,11.00
2018-05-09T06:25:57.472Z,15.60
2018-05-09T06:27:41.952Z,14.20
2018-05-09T06:28:41.954Z,15.50
2018-05-09T06:29:41.948Z,13.90
2018-05-09T06:30:41.951Z,14.50
2018-05-09T06:31:41.943Z,12.90
2018-05-09T06:32:41.946Z,15.50
2018-05-09T06:33:41.936Z,18.40
2018-05-09T06:34:41.933Z,10.70
2018-05-09T06:35:41.933Z,14.00
2018-05-09T06:36:41.929Z,11.20
2018-05-09T06:37:42.034Z,13.60
2018-05-09T06:38:41.923Z,18.30
2018-05-09T06:39:41.923Z,18.40
2018-05-09T06:40:41.916Z,14.10
2018-05-09T06:41:41.989Z,14.40
2018-05-09T06:42:41.916Z,13.20
2018-05-09T06:43:41.977Z,14.20
2018-05-09T06:44:41.909Z,15.10
2018-05-09T06:45:41.910Z,15.70
2018-05-09T06:46:41.905Z,15.60
2018-05-09T06:47:41.902Z,13.00
2018-05-09T06:48:41.901Z,18.20
2018-05-09T06:49:41.902Z,20.50
2018-05-09T06:50:41.893Z,16.40
2018-05-09T06:51:41.909Z,12.20
2018-05-09T06:52:41.895Z,10.60
2018-05-09T06:53:41.885Z,14.60
2018-05-09T06:54:41.881Z,12.90
2018-05-09T06:55:41.879Z,12.50
2018-05-09T06:56:41.873Z,15.60
2018-05-09T06:57:41.867Z,12.40
2018-05-09T06:58:41.865Z,16.50
2018-05-09T06:59:41.863Z,14.20
2018-05-09T07:00:41.856Z,11.00
2018-05-09T07:01:41.863Z,14.40
2018-05-09T07:02:41.843Z,11.90
2018-05-09T07:03:41.844Z,13.40
2018-05-09T07:04:41.832Z,18.00
2018-05-09T07:05:41.827Z,10.40
2018-05-09T07:06:42.280Z,14.40
2018-05-09T07:07:41.818Z,9.50
2018-05-09T07:08:41.817Z,11.70
2018-05-09T07:09:41.858Z,12.30
2018-05-09T07:10:41.796Z,9.20
2018-05-09T07:11:41.796Z,9.80
2018-05-09T07:12:41.897Z,16.80
2018-05-09T07:13:41.790Z,11.60
2018-05-09T07:14:41.770Z,12.80
2018-05-09T07:15:41.766Z,10.60
2018-05-09T07:16:41.759Z,10.80
2018-05-09T07:17:41.752Z,13.40
2018-05-09T07:18:41.746Z,15.60
2018-05-09T07:19:41.737Z,15.90
2018-05-09T07:20:41.738Z,11.40
2018-05-09T07:21:41.725Z,14.60
2018-05-09T07:22:41.720Z,16.70
2018-05-09T07:23:41.712Z,12.30
2018-05-09T07:24:41.705Z,14.60
2018-05-09T07:25:41.696Z,10.80
2018-05-09T07:26:41.693Z,14.40
2018-05-09T07:27:44.971Z,10.20
2018-05-09T07:28:41.678Z,10.70
2018-05-09T07:29:41.671Z,8.50
2018-05-09T07:30:41.672Z,13.50
2018-05-09T07:31:41.656Z,10.30
2018-05-09T07:32:41.653Z,9.60
2018-05-09T07:33:41.642Z,12.60
2018-05-09T07:34:41.641Z,10.30
2018-05-09T07:35:41.627Z,10.50
2018-05-09T07:36:41.622Z,10.90
2018-05-09T07:37:41.621Z,11.20
2018-05-09T07:38:41.604Z,12.90
2018-05-09T07:39:41.599Z,14.60
2018-05-09T07:40:41.589Z,16.10
2018-05-09T07:41:41.589Z,11.10
2018-05-09T07:42:41.576Z,10.90
2018-05-09T07:43:41.564Z,13.10
2018-05-09T07:44:41.557Z,11.50
2018-05-09T07:45:41.547Z,13.40
2018-05-09T07:46:41.545Z,15.30
2018-05-09T07:47:41.609Z,15.10
2018-05-09T07:48:41.527Z,11.70
2018-05-09T07:49:41.520Z,15.60
2018-05-09T07:50:41.517Z,13.50
2018-05-09T07:51:41.706Z,12.00
2018-05-09T07:52:41.648Z,9.10
2018-05-09T07:53:41.491Z,14.00
2018-05-09T07:54:41.484Z,13.40
2018-05-09T07:55:41.476Z,23.10
2018-05-09T07:56:41.471Z,15.80
2018-05-09T07:57:41.523Z,13.60
2018-05-09T07:58:41.450Z,17.20
2018-05-09T07:59:41.441Z,18.30
2018-05-09T08:00:41.443Z,15.20
2018-05-09T08:01:41.426Z,13.60
2018-05-09T08:02:41.422Z,13.30
2018-05-09T08:03:41.421Z,12.30
2018-05-09T08:04:41.418Z,13.50
2018-05-09T08:05:41.397Z,10.20
2018-05-09T08:06:41.400Z,15.30
2018-05-09T08:07:41.380Z,11.00
2018-05-09T08:08:41.384Z,9.50
2018-05-09T08:09:41.369Z,13.70
2018-05-09T08:10:41.365Z,9.10
2018-05-09T08:11:41.353Z,8.30
2018-05-09T08:12:41.344Z,12.20
2018-05-09T08:13:41.341Z,10.00
2018-05-09T08:14:41.330Z,7.70
2018-05-09T08:15:41.319Z,8.80
2018-05-09T08:16:41.314Z,13.30
2018-05-09T08:17:41.304Z,12.10
2018-05-09T08:18:41.307Z,9.60
2018-05-09T08:19:41.289Z,9.90
2018-05-09T08:20:41.281Z,10.60
2018-05-09T08:21:41.274Z,9.30
2018-05-09T08:22:41.264Z,12.40
2018-05-09T08:23:41.289Z,9.40
2018-05-09T08:24:41.333Z,11.50
2018-05-09T08:25:41.243Z,16.50
2018-05-09T08:26:41.240Z,17.90
2018-05-09T08:27:41.222Z,11.70
2018-05-09T08:28:41.215Z,14.60
2018-05-09T08:29:41.208Z,14.00
2018-05-09T08:30:41.198Z,12.90
2018-05-09T08:31:41.190Z,11.70
2018-05-09T08:32:41.184Z,10.80
2018-05-09T08:33:41.182Z,13.50
2018-05-09T08:34:41.184Z,10.40
2018-05-09T08:35:41.158Z,14.50
2018-05-09T08:36:41.154Z,11.30
2018-05-09T08:37:41.228Z,10.50
2018-05-09T08:38:41.152Z,11.90
2018-05-09T08:39:41.127Z,11.20
2018-05-09T08:40:41.117Z,12.20
2018-05-09T08:41:41.116Z,9.00
2018-05-09T08:42:41.100Z,11.10
2018-05-09T08:43:41.305Z,10.50
2018-05-09T08:44:41.083Z,14.50
2018-05-09T08:45:41.078Z,15.70
2018-05-09T08:46:41.084Z,19.50
2018-05-09T08:47:41.064Z,10.80
2018-05-09T08:48:41.057Z,11.10
2018-05-09T08:49:41.044Z,14.20
2018-05-09T08:50:41.032Z,12.40
2018-05-09T08:51:41.024Z,13.60
2018-05-09T08:52:41.015Z,14.10
2018-05-09T08:53:41.010Z,9.90
2018-05-09T08:54:40.999Z,10.70
2018-05-09T08:55:40.990Z,16.90
2018-05-09T08:56:40.982Z,13.00
2018-05-09T08:57:40.973Z,8.00
2018-05-09T08:58:40.973Z,9.20
2018-05-09T08:59:40.964Z,12.00
2018-05-09T09:00:40.955Z,13.00
2018-05-09T09:01:40.939Z,13.20
2018-05-09T09:02:40.932Z,8.10
2018-05-09T09:03:40.922Z,12.50
2018-05-09T09:04:40.934Z,12.60
2018-05-09T09:05:40.916Z,12.40
2018-05-09T09:06:40.898Z,7.80
2018-05-09T09:07:40.891Z,11.50
2018-05-09T09:08:40.883Z,11.00
2018-05-09T09:09:41.277Z,11.50
2018-05-09T09:10:40.866Z,8.10
2018-05-09T09:11:40.857Z,11.10
2018-05-09T09:12:40.852Z,9.10
2018-05-09T09:13:40.842Z,12.70
2018-05-09T09:14:40.844Z,8.30
2018-05-09T09:15:40.838Z,7.80
2018-05-09T09:16:40.821Z,7.90
2018-05-09T09:17:40.819Z,6.60
2018-05-09T09:18:40.852Z,11.00
2018-05-09T09:19:40.801Z,10.30
2018-05-09T09:20:40.794Z,8.70
2018-05-09T09:21:40.788Z,8.40
2018-05-09T09:22:40.784Z,6.60
2018-05-09T09:23:40.780Z,7.70
2018-05-09T09:24:40.783Z,10.00
2018-05-09T09:25:40.766Z,12.90
2018-05-09T09:26:40.759Z,10.30
2018-05-09T09:27:40.752Z,6.40
2018-05-09T09:28:40.746Z,11.40
2018-05-09T09:29:40.742Z,8.00
2018-05-09T09:30:40.750Z,10.10
2018-05-09T09:31:40.741Z,9.50
2018-05-09T09:32:40.735Z,7.20
2018-05-09T09:33:40.727Z,8.70
2018-05-09T09:34:40.714Z,9.50
2018-05-09T09:35:40.718Z,11.10
2018-05-09T09:36:40.703Z,9.80
2018-05-09T09:37:40.706Z,6.70
2018-05-09T09:38:40.692Z,13.60
2018-05-09T09:39:40.686Z,13.00
2018-05-09T09:40:40.679Z,8.70
2018-05-09T09:41:40.691Z,8.30
2018-05-09T09:42:40.671Z,5.50
2018-05-09T09:43:40.664Z,5.80
2018-05-09T09:44:40.665Z,5.90
2018-05-09T09:45:40.658Z,9.30
2018-05-09T09:46:40.659Z,8.90
2018-05-09T09:47:40.655Z,5.80
2018-05-09T09:48:40.652Z,9.30
2018-05-09T09:49:40.652Z,5.50
2018-05-09T09:50:40.731Z,7.50
2018-05-09T09:51:40.650Z,6.90
2018-05-09T09:52:40.652Z,5.90
2018-05-09T09:53:40.662Z,7.20
2018-05-09T09:54:40.655Z,6.10
2018-05-09T09:55:40.655Z,5.00
2018-05-09T09:56:40.659Z,6.90
2018-05-09T09:57:40.712Z,4.80
2018-05-09T09:58:40.663Z,9.90
2018-05-09T09:59:40.665Z,6.40
2018-05-09T10:00:40.668Z,11.10
2018-05-09T10:01:40.687Z,7.00
2018-05-09T10:02:40.682Z,6.60
2018-05-09T10:03:40.680Z,3.90
2018-05-09T10:04:40.683Z,6.70
2018-05-09T10:05:40.688Z,5.00
2018-05-09T10:06:40.694Z,7.10
2018-05-09T10:07:40.697Z,4.90
2018-05-09T10:08:40.709Z,6.70
2018-05-09T10:09:40.706Z,5.50
2018-05-09T10:10:40.721Z,7.50
2018-05-09T10:11:40.717Z,6.60
2018-05-09T10:12:40.725Z,10.80
2018-05-09T10:13:40.733Z,4.80
2018-05-09T10:14:40.739Z,7.10
2018-05-09T10:15:40.741Z,8.70
2018-05-09T10:16:40.747Z,8.70
2018-05-09T10:17:40.755Z,8.80
2018-05-09T10:18:40.767Z,6.70
2018-05-09T10:19:40.777Z,7.20
2018-05-09T10:20:40.781Z,5.80
2018-05-09T10:21:40.778Z,6.10
2018-05-09T10:22:40.787Z,4.70
2018-05-09T10:23:40.791Z,5.70
2018-05-09T10:24:40.801Z,8.80
2018-05-09T10:25:40.816Z,5.30
2018-05-09T10:26:40.812Z,6.30
2018-05-09T10:27:40.819Z,5.60
2018-05-09T10:28:40.835Z,6.10
2018-05-09T10:29:40.837Z,8.90
2018-05-09T10:30:40.842Z,5.60
2018-05-09T10:31:40.848Z,8.80
2018-05-09T10:32:40.864Z,6.60
2018-05-09T10:33:40.871Z,7.20
2018-05-09T10:34:40.869Z,5.70
2018-05-09T10:35:40.876Z,6.40
2018-05-09T10:36:40.886Z,8.00
2018-05-09T10:37:40.893Z,7.60
2018-05-09T10:38:41.053Z,6.40
2018-05-09T10:39:40.907Z,7.70
2018-05-09T10:40:40.917Z,4.50
2018-05-09T10:41:40.927Z,8.00
2018-05-09T10:42:40.933Z,8.00
2018-05-09T10:43:40.945Z,5.70
2018-05-09T10:44:40.946Z,5.60
2018-05-09T10:45:40.954Z,4.30
2018-05-09T10:46:40.962Z,5.50
2018-05-09T10:47:40.982Z,6.00
2018-05-09T10:48:40.984Z,5.20
2018-05-09T10:49:40.996Z,6.90
2018-05-09T10:50:40.998Z,6.80
2018-05-09T10:51:41.006Z,5.10
2018-05-09T10:52:41.016Z,6.80
2018-05-09T10:53:41.018Z,7.00
2018-05-09T10:54:41.025Z,4.70
2018-05-09T10:55:41.029Z,5.70
2018-05-09T10:56:41.037Z,6.80
2018-05-09T10:57:41.054Z,6.10
2018-05-09T10:58:41.050Z,4.10
2018-05-09T10:59:41.058Z,7.00
2018-05-09T11:00:41.067Z,6.40
2018-05-09T11:01:41.079Z,4.30
2018-05-09T11:02:41.077Z,5.10
2018-05-09T11:03:41.085Z,6.00
2018-05-09T11:04:41.090Z,6.70
2018-05-09T11:05:41.098Z,6.60
2018-05-09T11:06:41.104Z,5.40
2018-05-09T11:07:41.110Z,6.30
2018-05-09T11:08:41.116Z,5.90
2018-05-09T11:09:41.128Z,5.90
2018-05-09T11:10:41.149Z,4.40
2018-05-09T11:11:41.146Z,18.50
2018-05-09T11:12:41.153Z,6.50
2018-05-09T11:13:41.152Z,6.90
2018-05-09T11:14:41.165Z,6.40
2018-05-09T11:15:41.170Z,6.70
2018-05-09T11:16:41.226Z,7.50
2018-05-09T11:17:41.255Z,5.10
2018-05-09T11:18:41.202Z,6.50
2018-05-09T11:19:41.191Z,4.20
2018-05-09T11:20:41.216Z,5.30
2018-05-09T11:21:41.206Z,6.30
2018-05-09T11:22:41.217Z,6.00
2018-05-09T11:23:41.223Z,5.80
2018-05-09T11:24:41.323Z,4.60
2018-05-09T11:25:41.230Z,5.10
2018-05-09T11:26:41.343Z,4.10
2018-05-09T11:27:41.241Z,5.30
2018-05-09T11:28:41.253Z,4.00
2018-05-09T11:29:41.256Z,6.80
2018-05-09T11:30:41.259Z,6.80
2018-05-09T11:31:41.266Z,3.40
2018-05-09T11:32:41.330Z,3.90
2018-05-09T11:33:41.357Z,6.60
2018-05-09T11:34:41.300Z,5.40
2018-05-09T11:35:41.290Z,4.20
2018-05-09T11:36:41.301Z,5.00
2018-05-09T11:37:41.303Z,6.70
2018-05-09T11:38:41.305Z,4.10
2018-05-09T11:39:41.306Z,5.60
2018-05-09T11:40:41.312Z,5.50
2018-05-09T11:41:41.316Z,4.10
2018-05-09T11:42:41.330Z,7.40
2018-05-09T11:43:41.336Z,6.20
2018-05-09T11:44:41.332Z,7.60
2018-05-09T11:45:41.340Z,4.40
2018-05-09T11:46:41.339Z,7.20
2018-05-09T11:47:41.341Z,6.70
2018-05-09T11:48:41.346Z,6.60
2018-05-09T11:49:41.343Z,4.70
2018-05-09T11:50:41.348Z,4.20
2018-05-09T11:51:41.353Z,6.40
2018-05-09T11:52:41.355Z,6.10
2018-05-09T11:53:41.351Z,5.20
2018-05-09T11:54:41.363Z,3.60
2018-05-09T11:55:41.351Z,6.80
2018-05-09T11:56:41.356Z,9.10
2018-05-09T11:57:41.359Z,5.80
2018-05-09T11:58:41.358Z,5.90
2018-05-09T11:59:41.356Z,5.70
2018-05-09T12:00:41.372Z,6.60
2018-05-09T12:01:41.360Z,7.00
2018-05-09T12:02:41.372Z,5.70
2018-05-09T12:03:41.356Z,7.20
2018-05-09T12:04:41.361Z,8.10
2018-05-09T12:05:41.354Z,11.40
2018-05-09T12:06:41.348Z,5.60
2018-05-09T12:07:41.350Z,8.70
2018-05-09T12:08:41.343Z,5.30
2018-05-09T12:09:41.343Z,11.80
2018-05-09T12:10:41.463Z,7.10
2018-05-09T12:11:41.335Z,6.40
2018-05-09T12:12:41.333Z,7.10
2018-05-09T12:13:41.333Z,7.10
2018-05-09T12:14:41.329Z,8.20
2018-05-09T12:15:41.325Z,6.70
2018-05-09T12:16:41.322Z,7.70
2018-05-09T12:17:41.317Z,10.90
2018-05-09T12:18:41.317Z,10.50
2018-05-09T12:19:41.321Z,7.90
2018-05-09T12:20:41.316Z,11.00
2018-05-09T12:21:41.303Z,7.90
2018-05-09T12:22:41.298Z,7.20
2018-05-09T12:23:41.314Z,10.20
2018-05-09T12:24:41.389Z,7.90
2018-05-09T12:25:41.287Z,7.00
2018-05-09T12:26:41.286Z,10.10
2018-05-09T12:27:41.282Z,12.00
2018-05-09T12:28:41.276Z,12.10
2018-05-09T12:29:41.282Z,7.30
2018-05-09T12:30:41.285Z,9.20
2018-05-09T12:31:41.259Z,8.00
2018-05-09T12:32:41.255Z,9.20
2018-05-09T12:33:41.250Z,7.00
2018-05-09T12:34:41.244Z,8.50
2018-05-09T12:35:41.246Z,6.10
2018-05-09T12:36:41.243Z,9.90
2018-05-09T12:37:41.343Z,9.00
2018-05-09T12:38:41.225Z,8.90
2018-05-09T12:39:41.221Z,6.70
2018-05-09T12:40:41.223Z,10.90
2018-05-09T12:41:41.215Z,10.40
2018-05-09T12:42:41.204Z,9.30
2018-05-09T12:43:41.206Z,9.90
2018-05-09T12:44:41.200Z,9.30
2018-05-09T12:45:41.188Z,7.60
2018-05-09T12:46:41.181Z,12.80
2018-05-09T12:47:41.176Z,9.10
2018-05-09T12:48:41.259Z,7.90
2018-05-09T12:49:41.165Z,7.90
2018-05-09T12:50:41.163Z,9.60
2018-05-09T12:51:41.153Z,13.60
2018-05-09T12:52:41.147Z,8.90
2018-05-09T12:53:41.149Z,11.50
2018-05-09T12:54:41.166Z,9.30
2018-05-09T12:55:41.129Z,6.70
2018-05-09T12:56:41.133Z,9.30
2018-05-09T12:57:41.117Z,9.30
2018-05-09T12:58:41.112Z,8.10
2018-05-09T12:59:41.106Z,11.80
2018-05-09T13:00:41.107Z,10.40
2018-05-09T13:01:41.094Z,7.60
2018-05-09T13:02:41.089Z,7.50
2018-05-09T13:03:41.089Z,8.60
2018-05-09T13:04:41.074Z,15.40